Time;durP1;ratioP1;P1;durP2;ratioP2;P2;SDS_P1;SDS_P2;PMS_P1;PMS_P2;Temp;Humidity;BMP_temperature;BMP_pressure;BME280_temperature;BME280_humidity;BME280_pressure;Samples;Min_cycle;Max_cycle;Signal;HPM_P1;HPM_P2
2023/05/27 00:01:03;;;;;;;30.57;16.53;;;22.30;84.60;;;;;;4957946;28;20513;-50
2023/05/27 00:03:30;;;;;;;20.75;15.73;;;22.30;84.40;;;;;;4973070;28;20034;-49
2023/05/27 00:05:56;;;;;;;21.65;16.52;;;22.20;84.50;;;;;;4966686;28;20038;-49
2023/05/27 00:10:51;;;;;;;22.27;16.00;;;22.30;84.90;;;;;;4993241;28;20050;-52
2023/05/27 00:13:17;;;;;;;17.95;16.00;;;22.30;85.30;;;;;;4995218;28;20030;-51
2023/05/27 00:15:43;;;;;;;22.63;18.10;;;22.30;85.30;;;;;;4995132;28;20097;-55
2023/05/27 00:18:09;;;;;;;23.58;16.13;;;22.30;86.40;;;;;;4995164;28;20037;-55
2023/05/27 00:20:35;;;;;;;17.90;15.63;;;22.20;86.40;;;;;;4994056;28;20026;-52
2023/05/27 00:23:00;;;;;;;27.63;17.80;;;22.20;87.00;;;;;;4994794;28;20030;-54
2023/05/27 00:25:26;;;;;;;24.63;16.30;;;22.20;88.40;;;;;;4994034;28;20026;-55
2023/05/27 00:27:53;;;;;;;25.33;17.73;;;22.20;89.10;;;;;;4994898;28;20126;-55
2023/05/27 00:30:19;;;;;;;;;;;22.20;89.80;;;;;;4993909;28;20029;-53
2023/05/27 00:32:45;;;;;;;23.90;17.85;;;22.20;88.00;;;;;;4993758;28;20016;-52
2023/05/27 00:35:11;;;;;;;24.15;20.73;;;22.20;89.60;;;;;;4994854;28;20026;-54
2023/05/27 00:37:38;;;;;;;22.40;20.03;;;22.20;90.20;;;;;;4994901;28;20480;-52
2023/05/27 00:40:04;;;;;;;26.65;21.35;;;22.20;90.60;;;;;;4994691;28;20022;-55
2023/05/27 00:42:30;;;;;;;;;;;22.30;90.60;;;;;;4994875;28;20040;-54
2023/05/27 00:44:56;;;;;;;27.33;22.63;;;22.30;90.90;;;;;;4993128;28;20004;-55
2023/05/27 00:47:23;;;;;;;34.30;25.53;;;22.20;90.40;;;;;;4994316;28;20088;-52
2023/05/27 00:49:49;;;;;;;;;;;22.20;90.50;;;;;;4995283;28;20038;-55
2023/05/27 00:52:15;;;;;;;31.17;23.27;;;22.20;89.60;;;;;;4995217;28;19937;-54
2023/05/27 00:54:41;;;;;;;32.43;24.50;;;22.30;90.80;;;;;;4994930;28;20026;-51
2023/05/27 00:57:07;;;;;;;25.27;22.57;;;22.20;90.90;;;;;;4994856;28;20492;-51
2023/05/27 00:59:33;;;;;;;31.33;25.58;;;22.20;91.10;;;;;;4994788;28;20272;-53
2023/05/27 01:01:59;;;;;;;30.07;23.67;;;22.20;91.40;;;;;;4993283;28;20026;-53
2023/05/27 01:04:26;;;;;;;25.23;22.53;;;22.20;91.40;;;;;;4994763;28;20109;-56
2023/05/27 01:07:00;;;;;;;31.30;22.40;;;22.30;91.30;;;;;;4993457;28;20481;-53
2023/05/27 01:09:39;;;;;;;27.40;23.40;;;22.30;90.60;;;;;;4994480;28;20034;-51
2023/05/27 01:12:38;;;;;;;28.73;23.00;;;22.30;90.90;;;;;;4994580;28;20026;-55
2023/05/27 01:15:05;;;;;;;;;;;22.30;90.20;;;;;;4975808;28;20035;-53
2023/05/27 01:17:34;;;;;;;29.42;24.00;;;22.30;91.30;;;;;;4994321;28;19940;-55
2023/05/27 01:20:01;;;;;;;29.20;24.42;;;22.20;90.70;;;;;;4994029;28;20065;-53
2023/05/27 01:22:29;;;;;;;33.42;23.17;;;22.20;91.10;;;;;;4994044;28;20121;-54
2023/05/27 01:24:55;;;;;;;37.08;23.42;;;22.30;91.40;;;;;;4993220;28;20022;-54
2023/05/27 01:27:24;;;;;;;35.92;25.30;;;22.30;92.10;;;;;;4993784;28;20030;-54
2023/05/27 01:29:51;;;;;;;30.52;24.08;;;22.30;92.90;;;;;;4993608;28;20030;-52
2023/05/27 01:32:36;;;;;;;27.45;23.50;;;22.20;93.30;;;;;;4992416;28;20041;-52
2023/05/27 01:35:14;;;;;;;31.55;24.83;;;22.20;92.50;;;;;;4993785;28;20029;-52
2023/05/27 01:37:43;;;;;;;25.13;21.23;;;22.20;93.10;;;;;;4994255;28;20104;-57
2023/05/27 01:40:11;;;;;;;25.38;20.58;;;22.10;93.60;;;;;;4993698;28;20033;-53
2023/05/27 01:42:39;;;;;;;23.17;18.35;;;22.10;93.80;;;;;;4993486;28;20046;-51
2023/05/27 01:45:06;;;;;;;23.45;18.92;;;22.00;94.10;;;;;;4993026;28;20135;-55
2023/05/27 01:47:32;;;;;;;21.70;17.05;;;22.00;94.50;;;;;;4981302;28;20046;-51
2023/05/27 01:49:58;;;;;;;20.47;16.80;;;21.90;95.20;;;;;;4993519;28;20152;-53
2023/05/27 01:52:24;;;;;;;21.83;19.27;;;21.90;95.20;;;;;;4992973;28;20483;-53
2023/05/27 01:54:50;;;;;;;22.90;16.60;;;21.80;95.60;;;;;;4993499;28;20432;-54
2023/05/27 01:57:17;;;;;;;18.33;16.43;;;21.80;95.80;;;;;;4993325;28;20053;-53
2023/05/27 01:59:43;;;;;;;18.55;13.80;;;21.80;96.20;;;;;;4992956;28;20018;-53
2023/05/27 02:02:08;;;;;;;18.97;13.37;;;21.70;96.10;;;;;;4993380;28;20049;-51
2023/05/27 02:04:34;;;;;;;15.18;12.75;;;21.70;96.40;;;;;;4993355;28;20106;-52
2023/05/27 02:07:00;;;;;;;13.80;11.53;;;21.70;96.30;;;;;;4992898;28;20109;-53
2023/05/27 02:09:26;;;;;;;15.80;11.10;;;21.50;96.60;;;;;;4991814;28;20539;-54
2023/05/27 02:11:52;;;;;;;16.10;11.20;;;21.50;96.70;;;;;;4992449;28;20034;-53
2023/05/27 02:14:18;;;;;;;14.18;11.15;;;21.40;96.60;;;;;;4990050;28;20030;-52
2023/05/27 02:16:44;;;;;;;20.77;9.70;;;21.40;97.10;;;;;;4992113;28;20018;-57
2023/05/27 02:19:10;;;;;;;12.60;10.27;;;21.30;97.70;;;;;;4992417;28;20444;-52
2023/05/27 02:21:36;;;;;;;15.75;9.00;;;21.30;98.00;;;;;;4992765;28;20288;-53
2023/05/27 02:24:02;;;;;;;12.63;9.00;;;21.20;98.20;;;;;;4992391;28;20109;-52
2023/05/27 02:26:28;;;;;;;10.68;8.55;;;21.20;98.30;;;;;;4992788;28;20030;-52
2023/05/27 02:28:54;;;;;;;10.23;7.80;;;21.20;98.60;;;;;;4992375;28;20030;-52
2023/05/27 02:31:21;;;;;;;15.00;7.35;;;21.10;98.80;;;;;;4992495;28;20722;-53
2023/05/27 02:33:46;;;;;;;13.20;7.60;;;21.00;98.70;;;;;;4992717;28;20488;-54
2023/05/27 02:36:12;;;;;;;8.55;7.05;;;20.80;99.20;;;;;;4992174;28;20026;-56
2023/05/27 02:38:38;;;;;;;11.18;7.07;;;20.80;99.20;;;;;;4992592;28;20106;-55
2023/05/27 02:41:04;;;;;;;11.82;6.95;;;20.70;99.10;;;;;;4992334;28;20022;-51
2023/05/27 02:43:30;;;;;;;10.18;6.35;;;20.70;98.70;;;;;;4990763;28;20034;-51
2023/05/27 02:45:56;;;;;;;9.30;5.65;;;20.70;98.80;;;;;;4992031;28;20388;-54
2023/05/27 02:48:22;;;;;;;6.97;5.82;;;20.70;98.70;;;;;;4992622;28;20145;-53
2023/05/27 02:50:48;;;;;;;8.57;6.70;;;20.70;98.60;;;;;;4991016;28;20373;-51
2023/05/27 02:53:14;;;;;;;10.50;6.15;;;20.70;98.50;;;;;;4992169;28;20038;-53
2023/05/27 02:55:41;;;;;;;7.40;5.93;;;20.80;98.30;;;;;;4992518;28;20440;-52
2023/05/27 02:58:07;;;;;;;9.90;6.53;;;20.70;98.10;;;;;;4992387;28;20026;-55
2023/05/27 03:00:33;;;;;;;9.55;5.95;;;20.80;98.10;;;;;;4991566;28;20389;-52
2023/05/27 03:02:59;;;;;;;8.63;5.82;;;20.80;98.50;;;;;;4992105;28;20030;-57
2023/05/27 03:05:25;;;;;;;9.15;5.28;;;20.70;98.10;;;;;;4992241;28;20041;-53
2023/05/27 03:07:51;;;;;;;7.25;5.22;;;20.70;97.90;;;;;;4991933;28;20030;-54
2023/05/27 03:10:16;;;;;;;10.25;6.03;;;20.70;98.60;;;;;;4992193;28;20046;-51
2023/05/27 03:12:42;;;;;;;7.35;5.63;;;20.60;98.40;;;;;;4990676;28;20030;-53
2023/05/27 03:15:08;;;;;;;5.82;4.45;;;20.60;98.00;;;;;;4980561;28;20035;-51
2023/05/27 03:17:37;;;;;;;7.00;3.65;;;20.50;98.10;;;;;;4993066;28;20030;-52
2023/05/27 03:20:05;;;;;;;6.60;3.70;;;20.50;98.00;;;;;;4992253;28;20061;-54
2023/05/27 03:22:31;;;;;;;4.57;3.25;;;20.40;98.00;;;;;;4992275;28;20019;-52
2023/05/27 03:24:57;;;;;;;4.75;3.17;;;20.30;98.10;;;;;;4992512;28;20023;-51
2023/05/27 03:27:23;;;;;;;4.13;3.03;;;20.20;98.00;;;;;;4991574;28;20034;-51
2023/05/27 03:29:48;;;;;;;6.55;3.80;;;20.10;98.40;;;;;;4990811;28;20038;-53
2023/05/27 03:32:14;;;;;;;4.50;3.13;;;20.10;98.40;;;;;;4991803;28;20026;-53
2023/05/27 03:34:40;;;;;;;4.60;2.90;;;20.10;98.40;;;;;;4991901;28;20485;-55
2023/05/27 03:37:06;;;;;;;4.32;3.15;;;20.00;99.00;;;;;;4991289;28;20033;-52
2023/05/27 03:39:32;;;;;;;4.57;3.28;;;20.00;99.00;;;;;;4991911;28;20026;-53
2023/05/27 03:41:58;;;;;;;3.63;2.90;;;20.00;98.90;;;;;;4991935;28;20035;-56
2023/05/27 03:44:23;;;;;;;3.97;3.10;;;20.00;99.10;;;;;;4991907;28;20105;-56
2023/05/27 03:46:49;;;;;;;3.75;3.40;;;20.00;99.20;;;;;;4991910;28;20134;-52
2023/05/27 03:49:16;;;;;;;7.45;3.90;;;20.00;99.20;;;;;;4991335;28;20112;-52
2023/05/27 03:51:41;;;;;;;4.70;3.37;;;20.00;99.20;;;;;;4990522;28;20110;-53
2023/05/27 03:54:07;;;;;;;4.07;3.13;;;20.00;99.60;;;;;;4990558;28;20282;-51
2023/05/27 03:56:33;;;;;;;4.85;3.47;;;19.90;99.30;;;;;;4991962;28;20081;-53
2023/05/27 03:58:58;;;;;;;3.25;2.70;;;19.90;99.60;;;;;;4990871;28;20058;-51
2023/05/27 04:01:24;;;;;;;7.22;3.75;;;19.90;99.80;;;;;;4990343;28;20022;-52
2023/05/27 04:03:50;;;;;;;4.28;3.10;;;19.90;99.50;;;;;;4991639;28;20038;-51
2023/05/27 04:06:16;;;;;;;5.22;3.40;;;19.90;99.50;;;;;;4991986;28;20019;-53
2023/05/27 04:08:42;;;;;;;8.25;3.63;;;20.00;99.50;;;;;;4991697;28;20022;-51
2023/05/27 04:11:14;;;;;;;4.80;3.88;;;20.00;99.50;;;;;;4991979;28;20018;-54
2023/05/27 04:13:40;;;;;;;4.03;3.65;;;20.00;98.80;;;;;;4991786;28;20404;-57
2023/05/27 04:16:07;;;;;;;6.43;4.03;;;19.90;99.90;;;;;;4991858;28;20027;-55
2023/05/27 04:18:33;;;;;;;5.90;3.95;;;20.00;99.90;;;;;;4991689;28;20481;-53
2023/05/27 04:20:59;;;;;;;5.25;3.40;;;19.90;99.60;;;;;;4992143;28;20022;-53
2023/05/27 04:23:25;;;;;;;5.03;3.95;;;20.00;99.30;;;;;;4991970;28;20105;-51
2023/05/27 04:25:52;;;;;;;7.28;3.33;;;20.00;99.40;;;;;;4991897;28;20481;-53
2023/05/27 04:28:18;;;;;;;4.63;3.40;;;20.00;99.20;;;;;;4990370;28;20026;-53
2023/05/27 04:30:47;;;;;;;5.47;4.00;;;20.10;99.30;;;;;;4991699;28;20113;-54
2023/05/27 04:33:15;;;;;;;5.18;3.80;;;20.10;99.50;;;;;;4991830;28;20030;-56
2023/05/27 04:35:43;;;;;;;9.32;4.10;;;20.00;99.50;;;;;;4990751;28;20034;-54
2023/05/27 04:38:10;;;;;;;5.80;3.88;;;20.00;99.90;;;;;;4995127;28;20054;-53
2023/05/27 04:40:36;;;;;;;;;;;20.00;99.90;;;;;;4994353;28;20026;-52
2023/05/27 04:43:02;;;;;;;8.00;3.85;;;20.00;98.70;;;;;;4995096;28;19906;-54
2023/05/27 04:45:29;;;;;;;4.43;3.65;;;20.00;99.40;;;;;;4995205;28;20072;-51
2023/05/27 04:47:55;;;;;;;7.15;3.75;;;20.10;99.60;;;;;;4994964;28;20512;-55
2023/05/27 04:50:23;;;;;;;6.17;3.40;;;20.10;99.70;;;;;;4995133;28;20030;-54
2023/05/27 04:52:48;;;;;;;8.15;3.85;;;20.10;99.60;;;;;;4994652;28;20372;-52
2023/05/27 04:55:14;;;;;;;4.82;4.38;;;20.20;99.30;;;;;;4994979;28;20380;-51
2023/05/27 04:57:40;;;;;;;6.80;3.72;;;20.30;99.10;;;;;;4994689;28;20026;-55
2023/05/27 05:02:34;;;;;;;4.80;3.70;;;20.30;98.60;;;;;;4994745;28;20041;-50
2023/05/27 05:05:05;;;;;;;4.07;3.67;;;20.40;99.00;;;;;;4994898;28;20030;-52
2023/05/27 05:07:31;;;;;;;4.57;4.03;;;20.50;97.90;;;;;;4994563;28;20429;-51
2023/05/27 05:09:57;;;;;;;5.78;4.18;;;20.50;98.50;;;;;;4993247;28;20038;-51
2023/05/27 05:12:25;;;;;;;5.63;4.18;;;20.60;98.70;;;;;;4994578;28;20109;-52
2023/05/27 05:14:51;;;;;;;6.25;4.38;;;20.60;98.50;;;;;;4994681;28;20563;-51
2023/05/27 05:17:17;;;;;;;7.95;5.00;;;20.60;98.90;;;;;;4994498;28;20504;-52
2023/05/27 05:19:45;;;;;;;5.00;4.33;;;20.70;98.80;;;;;;4994707;28;20027;-52
2023/05/27 05:22:13;;;;;;;5.53;4.30;;;20.70;98.80;;;;;;4994430;28;20418;-51
2023/05/27 05:24:39;;;;;;;8.25;5.07;;;20.80;98.60;;;;;;4993186;28;20080;-52
2023/05/27 05:27:08;;;;;;;9.33;4.83;;;20.80;98.60;;;;;;4994264;28;20424;-52
2023/05/27 05:29:34;;;;;;;7.97;4.93;;;21.00;98.40;;;;;;4994330;28;20072;-54
2023/05/27 05:31:59;;;;;;;7.95;5.20;;;21.00;98.40;;;;;;4993064;28;20477;-52
2023/05/27 05:34:25;;;;;;;7.07;5.82;;;21.10;97.90;;;;;;4992969;28;20026;-52
2023/05/27 05:36:52;;;;;;;;;;;21.20;97.90;;;;;;4993515;28;20406;-53
2023/05/27 05:39:18;;;;;;;11.65;5.45;;;21.30;97.50;;;;;;4993927;28;19916;-54
2023/05/27 05:41:43;;;;;;;7.17;5.30;;;21.30;97.40;;;;;;4994087;28;20044;-54
2023/05/27 05:44:10;;;;;;;6.82;5.47;;;21.30;97.70;;;;;;4994195;28;20030;-51
2023/05/27 05:46:36;;;;;;;6.68;4.93;;;21.40;97.60;;;;;;4994031;28;20031;-53
2023/05/27 05:49:02;;;;;;;7.55;4.95;;;21.50;97.50;;;;;;4992748;28;20084;-56
2023/05/27 05:51:27;;;;;;;6.63;4.63;;;21.60;97.20;;;;;;4994145;28;20057;-52
2023/05/27 05:53:53;;;;;;;6.97;5.40;;;21.60;96.90;;;;;;4993772;28;20038;-53
2023/05/27 05:56:19;;;;;;;7.15;5.20;;;21.70;96.70;;;;;;4993976;28;20019;-53
2023/05/27 05:58:45;;;;;;;7.90;6.10;;;21.70;96.70;;;;;;4993846;28;20114;-52
2023/05/27 06:01:11;;;;;;;5.60;4.77;;;21.70;96.70;;;;;;4993978;28;20475;-52
2023/05/27 06:03:36;;;;;;;11.40;5.30;;;21.70;96.70;;;;;;4993802;28;20069;-52
2023/05/27 06:06:02;;;;;;;7.28;6.03;;;21.60;96.40;;;;;;4993777;28;20052;-56
2023/05/27 06:08:28;;;;;;;6.80;5.70;;;21.70;96.80;;;;;;4992117;28;20068;-53
2023/05/27 06:10:54;;;;;;;5.87;5.03;;;21.70;96.70;;;;;;4992842;28;20535;-50
2023/05/27 06:13:20;;;;;;;9.18;6.13;;;21.70;96.80;;;;;;4993608;28;20112;-50
2023/05/27 06:15:45;;;;;;;7.63;5.28;;;21.70;97.10;;;;;;4992114;28;20033;-48
2023/05/27 06:18:11;;;;;;;7.45;5.13;;;21.80;96.90;;;;;;4985729;28;20400;-52
2023/05/27 06:20:37;;;;;;;5.90;5.25;;;21.70;96.60;;;;;;4978237;28;20105;-53
2023/05/27 06:23:03;;;;;;;9.07;5.33;;;21.70;96.50;;;;;;4973924;28;20038;-54
2023/05/27 06:25:28;;;;;;;6.85;5.38;;;21.70;96.60;;;;;;4974051;28;20035;-50
2023/05/27 06:27:54;;;;;;;8.27;6.53;;;21.80;97.00;;;;;;4973874;28;20079;-53
2023/05/27 06:30:20;;;;;;;8.60;5.83;;;21.80;97.30;;;;;;4973900;28;20123;-52
2023/05/27 06:32:45;;;;;;;7.53;5.90;;;21.80;96.80;;;;;;4973604;28;20035;-50
2023/05/27 06:35:11;;;;;;;7.33;6.53;;;21.90;97.00;;;;;;4973802;28;20027;-55
2023/05/27 06:37:37;;;;;;;10.40;6.33;;;21.90;96.70;;;;;;4973659;28;20378;-57
2023/05/27 06:40:03;;;;;;;8.48;5.72;;;22.00;96.10;;;;;;4973628;28;20114;-57
2023/05/27 06:42:28;;;;;;;15.10;6.43;;;22.10;95.70;;;;;;4972441;28;20650;-53
2023/05/27 06:44:54;;;;;;;8.10;5.90;;;22.20;95.80;;;;;;4973640;28;20379;-56
2023/05/27 06:47:20;;;;;;;12.10;6.75;;;22.20;95.40;;;;;;4978478;28;20405;-56
2023/05/27 06:49:46;;;;;;;9.15;5.80;;;22.30;94.70;;;;;;4992853;28;20110;-54
2023/05/27 06:52:11;;;;;;;7.05;6.35;;;22.40;94.80;;;;;;4992772;28;20544;-54
2023/05/27 06:54:37;;;;;;;9.00;6.53;;;22.40;93.90;;;;;;4992784;28;20022;-55
2023/05/27 06:57:03;;;;;;;7.95;6.70;;;22.40;93.80;;;;;;4992834;28;20089;-54
2023/05/27 06:59:29;;;;;;;9.95;6.30;;;22.50;94.50;;;;;;4991276;28;20535;-52
2023/05/27 07:01:56;;;;;;;8.30;6.63;;;22.70;94.60;;;;;;4992628;28;20042;-53
2023/05/27 07:04:22;;;;;;;9.32;6.78;;;22.80;94.10;;;;;;4992766;28;20025;-54
2023/05/27 07:06:47;;;;;;;10.90;6.87;;;22.90;93.20;;;;;;4992670;28;20475;-55
2023/05/27 07:09:13;;;;;;;11.93;6.37;;;23.00;92.90;;;;;;4992506;28;20121;-54
2023/05/27 07:11:40;;;;;;;8.63;6.63;;;23.10;93.60;;;;;;4992476;28;20425;-55
2023/05/27 07:14:06;;;;;;;10.13;6.90;;;23.20;93.50;;;;;;4992635;28;20030;-57
2023/05/27 07:16:32;;;;;;;13.03;6.93;;;23.30;93.00;;;;;;4992453;28;20504;-52
2023/05/27 07:18:57;;;;;;;11.03;6.20;;;23.40;92.60;;;;;;4992422;28;20022;-52
2023/05/27 07:21:23;;;;;;;9.00;6.87;;;23.50;92.00;;;;;;4992568;28;20027;-55
2023/05/27 07:23:49;;;;;;;9.45;7.00;;;23.50;91.20;;;;;;4992445;28;20062;-50
2023/05/27 07:26:14;;;;;;;9.07;6.60;;;23.50;91.30;;;;;;4992494;28;20034;-58
2023/05/27 07:28:40;;;;;;;11.20;7.60;;;23.50;90.80;;;;;;4992229;28;20026;-53
2023/05/27 07:31:06;;;;;;;10.87;7.43;;;23.50;90.50;;;;;;4992335;28;20030;-55
2023/05/27 07:33:32;;;;;;;10.70;7.33;;;23.50;90.20;;;;;;4992247;28;20022;-53
2023/05/27 07:35:57;;;;;;;9.73;7.30;;;23.60;90.00;;;;;;4992376;28;20497;-54
2023/05/27 07:38:23;;;;;;;11.50;8.27;;;23.70;90.20;;;;;;4991995;28;20113;-48
2023/05/27 07:40:49;;;;;;;10.93;7.20;;;23.70;89.60;;;;;;4992352;28;20022;-48
2023/05/27 07:43:15;;;;;;;11.43;8.45;;;23.70;86.80;;;;;;4992151;28;20026;-48
2023/05/27 07:45:40;;;;;;;8.07;6.83;;;23.80;89.10;;;;;;4992337;28;20485;-48
2023/05/27 07:48:06;;;;;;;8.27;6.93;;;23.90;88.10;;;;;;4996779;28;20372;-51
2023/05/27 07:50:32;;;;;;;8.27;5.93;;;24.00;86.30;;;;;;4999969;28;20070;-48
2023/05/27 07:52:57;;;;;;;11.33;7.27;;;24.20;83.10;;;;;;5002347;28;20030;-48
2023/05/27 07:55:23;;;;;;;8.37;6.70;;;24.20;84.30;;;;;;4994399;28;20465;-48
2023/05/27 07:57:49;;;;;;;9.47;6.87;;;24.20;83.20;;;;;;4991981;28;20101;-52
2023/05/27 08:00:15;;;;;;;10.73;6.90;;;24.30;83.70;;;;;;4992090;28;20036;-48
2023/05/27 08:02:43;;;;;;;11.63;7.10;;;24.40;82.40;;;;;;4991967;28;20030;-48
2023/05/27 08:05:09;;;;;;;8.10;7.13;;;24.40;80.80;;;;;;4992053;28;20038;-50
2023/05/27 08:07:35;;;;;;;9.13;6.75;;;24.40;81.50;;;;;;4991874;28;20026;-48
2023/05/27 08:10:01;;;;;;;11.17;7.40;;;24.50;80.90;;;;;;4991881;28;20416;-48
2023/05/27 08:12:26;;;;;;;9.13;7.10;;;24.60;80.30;;;;;;4995113;28;20421;-49
2023/05/27 08:14:52;;;;;;;8.80;7.47;;;24.70;79.10;;;;;;4995563;28;20065;-48
2023/05/27 08:17:18;;;;;;;10.27;6.57;;;24.80;78.60;;;;;;4995330;28;20031;-47
2023/05/27 08:19:44;;;;;;;8.10;6.17;;;24.90;78.80;;;;;;4995791;28;20164;-52
2023/05/27 08:22:10;;;;;;;7.67;6.87;;;24.90;79.40;;;;;;4995872;28;20485;-51
2023/05/27 08:24:35;;;;;;;11.07;6.83;;;25.00;78.90;;;;;;4995698;28;20034;-52
2023/05/27 08:27:02;;;;;;;7.83;6.83;;;25.00;79.30;;;;;;4995490;28;20026;-53
2023/05/27 08:29:30;;;;;;;9.05;7.05;;;25.00;78.40;;;;;;4995464;28;20069;-51
2023/05/27 08:31:56;;;;;;;12.13;7.25;;;25.00;77.50;;;;;;4995318;28;20117;-54
2023/05/27 08:34:22;;;;;;;8.43;6.50;;;24.90;76.20;;;;;;4977984;28;20153;-50
2023/05/27 08:36:48;;;;;;;8.63;6.22;;;24.80;76.00;;;;;;4995422;28;20038;-50
2023/05/27 08:39:14;;;;;;;488.80;414.53;;;24.90;77.10;;;;;;4995167;28;20018;-52
2023/05/27 08:41:40;;;;;;;20.27;14.37;;;24.90;77.70;;;;;;4995392;28;20477;-61
2023/05/27 08:44:06;;;;;;;19.90;15.10;;;25.00;77.10;;;;;;4995319;28;20057;-52
2023/05/27 08:46:33;;;;;;;10.60;7.60;;;25.00;76.10;;;;;;4993915;28;20210;-49
2023/05/27 08:48:59;;;;;;;7.88;7.03;;;24.90;74.20;;;;;;4994878;28;20022;-50
2023/05/27 08:51:26;;;;;;;10.20;6.83;;;24.80;74.70;;;;;;4995209;28;20034;-52
2023/05/27 08:53:52;;;;;;;8.57;6.97;;;24.80;75.90;;;;;;4995038;28;20038;-53
2023/05/27 08:56:23;;;;;;;8.17;6.80;;;24.80;74.10;;;;;;4995145;28;20103;-53
2023/05/27 08:58:50;;;;;;;8.85;6.57;;;24.70;73.60;;;;;;4994769;28;20030;-54
2023/05/27 09:01:18;;;;;;;7.68;6.43;;;24.60;74.10;;;;;;4995030;28;20559;-51
2023/05/27 09:03:45;;;;;;;6.32;5.72;;;24.50;74.90;;;;;;4994833;28;20551;-50
2023/05/27 09:06:11;;;;;;;11.15;6.85;;;24.60;73.70;;;;;;4995020;28;20481;-53
2023/05/27 09:08:37;;;;;;;8.60;5.85;;;24.60;74.20;;;;;;4994590;28;20113;-53
2023/05/27 09:11:03;;;;;;;8.23;5.83;;;24.70;72.70;;;;;;4993581;28;20153;-53
2023/05/27 09:13:29;;;;;;;9.60;5.73;;;24.80;73.50;;;;;;4994740;28;20477;-53
2023/05/27 09:16:05;;;;;;;9.23;5.38;;;24.80;73.30;;;;;;4994761;28;20033;-53
2023/05/27 09:18:33;;;;;;;6.88;5.47;;;24.80;72.70;;;;;;4994337;28;20109;-55
2023/05/27 09:20:59;;;;;;;8.38;6.15;;;24.90;71.60;;;;;;4995213;28;20105;-55
2023/05/27 09:23:25;;;;;;;10.30;7.57;;;24.90;71.10;;;;;;4991845;28;20188;-53
2023/05/27 09:25:51;;;;;;;5.63;5.03;;;24.90;70.30;;;;;;4993902;28;20030;-53
2023/05/27 09:28:25;;;;;;;6.70;4.97;;;24.90;70.50;;;;;;4990291;28;20101;-51
2023/05/27 09:31:06;;;;;;;8.55;5.90;;;24.90;70.30;;;;;;4993298;28;20117;-50
2023/05/27 09:33:35;;;;;;;9.52;6.03;;;24.80;69.50;;;;;;4992537;28;20025;-54
2023/05/27 09:36:02;;;;;;;7.80;5.97;;;24.80;72.30;;;;;;4992464;28;20026;-49
2023/05/27 09:38:35;;;;;;;9.77;5.78;;;24.80;71.50;;;;;;4992573;28;20022;-52
2023/05/27 09:41:01;;;;;;;7.60;5.53;;;24.80;70.00;;;;;;4992439;28;20479;-50
2023/05/27 09:43:28;;;;;;;6.93;5.60;;;24.80;70.50;;;;;;4993288;28;20105;-53
2023/05/27 09:46:03;;;;;;;6.97;5.97;;;24.70;71.70;;;;;;4992747;28;20496;-51
2023/05/27 09:48:33;;;;;;;7.20;5.40;;;24.80;71.90;;;;;;4991294;28;20027;-52
2023/05/27 09:51:03;;;;;;;6.85;5.63;;;24.90;71.40;;;;;;4991608;28;20374;-53
2023/05/27 09:53:30;;;;;;;8.50;5.70;;;24.90;70.90;;;;;;4991350;28;20032;-55
2023/05/27 09:55:57;;;;;;;10.93;6.10;;;25.00;72.10;;;;;;4992887;28;20373;-50
2023/05/27 09:58:24;;;;;;;6.13;5.45;;;25.10;73.60;;;;;;4993101;28;20031;-55
2023/05/27 10:00:51;;;;;;;7.03;5.82;;;25.20;72.90;;;;;;4992814;28;20097;-50
2023/05/27 10:03:21;;;;;;;7.78;5.43;;;25.30;71.80;;;;;;4992280;28;20460;-52
2023/05/27 10:05:49;;;;;;;8.10;5.47;;;25.40;70.90;;;;;;4991816;28;20066;-53
2023/05/27 10:08:15;;;;;;;7.00;5.50;;;25.40;70.60;;;;;;4993079;28;20026;-54
2023/05/27 10:10:41;;;;;;;6.10;4.87;;;25.50;70.90;;;;;;4992733;28;20141;-53
2023/05/27 10:13:08;;;;;;;10.20;5.40;;;25.50;69.50;;;;;;4993458;28;20101;-51
2023/05/27 10:15:34;;;;;;;8.05;5.25;;;25.50;70.00;;;;;;4993473;28;20444;-50
2023/05/27 10:18:02;;;;;;;;;;;25.60;70.20;;;;;;4993521;28;20102;-50
2023/05/27 10:20:31;;;;;;;8.23;5.35;;;25.50;70.80;;;;;;4993351;28;19952;-53
2023/05/27 10:23:25;;;;;;;9.20;6.03;;;25.60;72.20;;;;;;4993118;28;20034;-52
2023/05/27 10:25:53;;;;;;;8.82;5.60;;;25.80;71.00;;;;;;4990466;28;20105;-50
2023/05/27 10:28:28;;;;;;;8.57;5.25;;;25.90;69.00;;;;;;4992985;28;20563;-52
2023/05/27 10:31:03;;;;;;;6.80;4.65;;;26.00;71.80;;;;;;4993169;28;20038;-51
2023/05/27 10:33:30;;;;;;;8.35;5.18;;;26.20;70.20;;;;;;4992396;28;20393;-54
2023/05/27 10:35:56;;;;;;;;;;;26.30;67.60;;;;;;4993353;28;20030;-51
2023/05/27 10:38:22;;;;;;;9.20;4.78;;;26.20;65.20;;;;;;4993052;28;19905;-50
2023/05/27 10:40:58;;;;;;;6.82;5.20;;;26.20;66.00;;;;;;4993061;28;20081;-51
2023/05/27 10:43:27;;;;;;;6.07;4.80;;;26.10;64.10;;;;;;4993154;28;20098;-50
2023/05/27 10:46:12;;;;;;;12.13;6.28;;;26.10;66.10;;;;;;4992991;28;20026;-50
2023/05/27 10:48:41;;;;;;;8.57;5.68;;;26.10;64.10;;;;;;4992305;28;20057;-52
2023/05/27 10:51:08;;;;;;;5.88;4.47;;;26.30;67.90;;;;;;4990237;28;20037;-54
2023/05/27 10:53:36;;;;;;;6.38;4.85;;;26.40;67.40;;;;;;4991780;28;20105;-53
2023/05/27 10:56:02;;;;;;;8.48;4.97;;;26.50;67.30;;;;;;4992591;28;20477;-57
2023/05/27 10:58:29;;;;;;;6.40;4.97;;;26.70;68.00;;;;;;4992510;28;20015;-56
2023/05/27 11:00:56;;;;;;;7.47;5.57;;;26.80;66.20;;;;;;4992781;28;20485;-53
2023/05/27 11:03:26;;;;;;;5.72;4.93;;;26.80;65.50;;;;;;4992507;28;20030;-53
2023/05/27 11:06:01;;;;;;;6.75;4.82;;;26.80;67.10;;;;;;4992704;28;20028;-56
2023/05/27 11:08:27;;;;;;;8.05;5.00;;;27.00;64.50;;;;;;4991063;28;20035;-54
2023/05/27 11:11:03;;;;;;;5.65;4.57;;;27.10;64.00;;;;;;4992613;28;20037;-55
2023/05/27 11:13:33;;;;;;;10.30;4.85;;;27.30;65.90;;;;;;4992453;28;20512;-54
2023/05/27 11:16:00;;;;;;;7.78;5.65;;;27.40;65.40;;;;;;4992599;28;20022;-54
2023/05/27 11:18:41;;;;;;;7.85;5.65;;;27.50;63.30;;;;;;4992041;28;20054;-52
2023/05/27 11:21:08;;;;;;;8.27;5.05;;;27.40;64.00;;;;;;4992551;28;20022;-53
2023/05/27 11:23:42;;;;;;;4.53;3.90;;;27.50;62.20;;;;;;4992527;28;20647;-52
2023/05/27 11:26:22;;;;;;;5.65;3.95;;;27.60;63.50;;;;;;4992404;28;20030;-56
2023/05/27 11:28:58;;;;;;;5.03;3.45;;;27.80;62.00;;;;;;4992672;28;20045;-55
2023/05/27 11:31:28;;;;;;;5.60;4.32;;;27.90;60.50;;;;;;4992512;28;20034;-56
2023/05/27 11:33:54;;;;;;;5.47;3.80;;;28.00;60.40;;;;;;4992096;28;20065;-55
2023/05/27 11:36:21;;;;;;;5.63;3.67;;;28.20;60.30;;;;;;4992521;28;20018;-55
2023/05/27 11:39:02;;;;;;;7.68;3.92;;;28.40;58.40;;;;;;4992105;28;20081;-55
2023/05/27 11:41:30;;;;;;;6.03;3.92;;;28.40;58.00;;;;;;4991116;28;20025;-56
2023/05/27 11:43:57;;;;;;;10.10;8.25;;;28.50;57.30;;;;;;4990971;28;20026;-53
2023/05/27 11:46:22;;;;;;;;;;;28.50;57.20;;;;;;4994191;28;20058;-56
2023/05/27 11:48:49;;;;;;;7.43;4.55;;;28.50;58.40;;;;;;4996218;28;19910;-54
2023/05/27 11:51:15;;;;;;;6.88;4.30;;;28.60;57.80;;;;;;4996410;28;20401;-56
2023/05/27 11:53:47;;;;;;;4.27;3.73;;;28.60;58.80;;;;;;4996205;28;20034;-56
2023/05/27 11:56:14;;;;;;;7.40;4.07;;;28.60;58.90;;;;;;4996172;28;20023;-56
2023/05/27 11:58:39;;;;;;;;;;;28.70;58.90;;;;;;4996397;28;20064;-57
2023/05/27 12:01:05;;;;;;;5.65;4.10;;;28.70;58.00;;;;;;4996055;28;19906;-54
2023/05/27 12:03:33;;;;;;;6.45;4.05;;;28.70;58.50;;;;;;4996104;28;20030;-56
2023/05/27 12:05:59;;;;;;;6.05;4.00;;;28.80;59.10;;;;;;4996013;28;20034;-56
2023/05/27 12:08:25;;;;;;;4.67;3.13;;;28.80;58.40;;;;;;4995898;28;20034;-54
2023/05/27 12:10:53;;;;;;;5.07;3.67;;;28.90;57.50;;;;;;4996259;28;20045;-56
2023/05/27 12:13:21;;;;;;;5.68;4.07;;;29.00;57.00;;;;;;4995726;28;20378;-56
2023/05/27 12:15:50;;;;;;;5.60;3.92;;;29.10;57.30;;;;;;4995862;28;20473;-54
2023/05/27 12:18:17;;;;;;;4.68;3.78;;;29.20;56.20;;;;;;4995709;28;20045;-56
2023/05/27 12:20:43;;;;;;;;;;;29.30;57.10;;;;;;4996086;28;20496;-52
2023/05/27 12:23:09;;;;;;;5.35;3.40;;;29.40;56.10;;;;;;4995140;28;19917;-54
2023/05/27 12:25:34;;;;;;;4.10;3.70;;;29.30;57.40;;;;;;4996096;28;20034;-53
2023/05/27 12:28:00;;;;;;;5.60;3.70;;;29.30;57.70;;;;;;4995579;28;20105;-54
2023/05/27 12:30:26;;;;;;;5.63;3.90;;;29.30;57.70;;;;;;4995631;28;20034;-52
2023/05/27 12:32:51;;;;;;;12.90;4.30;;;29.20;57.80;;;;;;4921540;28;183629;-54
2023/05/27 12:35:17;;;;;;;7.17;4.60;;;28.90;57.20;;;;;;4874139;28;72465;-50
2023/05/27 12:43:19;;;;;;;6.70;3.95;;;28.90;57.70;;;;;;4987426;27;116758;-53
2023/05/27 12:45:45;;;;;;;;;;;29.20;57.60;;;;;;4933728;28;153672;-52
2023/05/27 12:48:11;;;;;;;5.88;3.83;;;29.50;57.80;;;;;;5032244;28;19906;-49
2023/05/27 12:50:38;;;;;;;7.68;3.63;;;29.60;57.00;;;;;;5029056;28;20064;-50
2023/05/27 12:53:04;;;;;;;3.92;3.53;;;29.60;55.80;;;;;;5003474;28;152682;-54
2023/05/27 12:55:30;;;;;;;8.30;4.60;;;29.70;56.50;;;;;;5029091;28;20458;-52